PSO weather

Antonio Narino Airport
Pasto, NariƱo Department, Colombia

Public forecast

Using degrees Celsius for public forecast. Weather courtesy of forecast.io.

Current aviation weather report (METAR) for Antonio Narino Airport

Report is more than 2 hours old.

Retrieved 2019/11/17 23:00 UTC (3 hours ago):

SKPS 172300Z 36005KT 6000 VCFG BKN012 18/16 A3005

Closest aviation forecast (TAF) to Antonio Narino Airport

Forecast is more than 12 hours old.

Closest forecast is Teniente Coronel Luis a Mantilla Airport, 43.2 nm (80.0 km) SW. Retrieved 2018/04/06 18:33 UTC (2 years ago):

TAF SPJC 061700Z 0618/0718 25008KT CAVOK TX26/0618Z TN18/0711ZLVA0883 061730 GG KWBCYMYX 061730 SEQUYZYX SPEQ SEQU 061728 SPECI SETU 061728Z 07006KT 9999 -TSRA FEW020CB BKN023 CB OVER STN